This is the latest recevied weather packets stored in our database for station/object Kozakov. If no packets are shown the sender has not sent any weather packets the latest 1 day(s).
| Time | Temp. | Humidity | Pressure | Rain* | Wind** | Luminosity | Snow |
|---|---|---|---|---|---|---|---|
| 1778010916 | 12.78° C | 100% | - | - | 7.15 m/s, 49° | - | - |
| 1778010618 | 12.78° C | 100% | - | - | 7.15 m/s, 43° | - | - |
| 1778010318 | 12.78° C | 100% | - | - | 7.15 m/s, 50° | - | - |
| 1778010017 | 12.78° C | 100% | - | - | 7.15 m/s, 52° | - | - |
| 1778009718 | 12.78° C | 100% | - | - | 7.15 m/s, 55° | - | - |
| 1778009418 | 12.22° C | 100% | - | - | 5.81 m/s, 57° | - | - |
| 1778009117 | 12.22° C | 100% | - | - | 5.81 m/s, 59° | - | - |
| 1778008820 | 12.78° C | 99% | - | - | 4.92 m/s, 46° | - | - |
| 1778008518 | 12.78° C | 100% | - | - | 4.92 m/s, 53° | - | - |
| 1778008217 | 13.89° C | 95% | - | - | 4.92 m/s, 52° | - | - |
| 1778007917 | 13.89° C | 100% | - | - | 4.02 m/s, 74° | - | - |
| 1778007618 | 13.89° C | 100% | - | - | 4.02 m/s, 56° | - | - |
| 1778007318 | 13.89° C | 100% | - | - | 0.89 m/s, 91° | - | - |
| 1778007025 | 12.78° C | 100% | - | - | 0.89 m/s, 149° | - | - |
| 1778006718 | 12.78° C | 100% | - | - | 3.13 m/s, 149° | - | - |
| 1778006418 | 12.22° C | 100% | - | - | 3.13 m/s, 157° | - | - |
| 1778006117 | 12.78° C | 100% | - | - | 4.92 m/s, 190° | - | - |
| 1778005818 | 12.22° C | 100% | - | - | 4.92 m/s, 182° | - | - |
| 1778005518 | 12.22° C | 100% | - | - | 4.92 m/s, 200° | - | - |
| 1778005220 | 12.78° C | 100% | - | - | 5.81 m/s, 180° | - | - |
| 1778004918 | 13.89° C | 100% | - | - | 1.79 m/s, 154° | - | - |
| 1778004617 | 15° C | 100% | - | - | 3.13 m/s, 61° | - | - |
| 1778004317 | 15° C | 100% | - | - | 4.92 m/s, 38° | - | - |
| 1778004021 | 15° C | 100% | - | - | 5.81 m/s, 39° | - | - |
| 1778003717 | 15° C | 100% | - | - | 5.81 m/s, 37° | - | - |
* Rain since midnight (hover to see other rain measurements)
** Current wind speed in m/s (hover to see current wind gust speed)